Weather at Schoolcraft County Airport

Public forecast

Using degrees Fahrenheit for public forecast. Weather courtesy of forecast.io.

Current aviation weather report (METAR) for Schoolcraft County Airport

Retrieved 2020/10/27 20:35 UTC (0 seconds ago):

KISQ 272035Z AUTO 24005KT 10SM CLR 02/M06 A3007 RMK AO2 T00161063

Closest aviation forecast (TAF) to Schoolcraft County Airport

Closest forecast is Sawyer International Airport, 55.7 nm (103.2 km) WNW. Retrieved 2020/10/27 18:39 UTC (2 hours ago):

TAF KSAW 271736Z 2718/2818 22013G18KT P6SM SKC FM280400 23010G24KT P6SM VCSH BKN100 FM281100 23010KT P6SM SCT045 FM281500 23009KT P6SM BKN080